createdAt,value
2022-07-30T00:00:29.057Z,35.50
2022-07-30T00:02:57.231Z,36.10
2022-07-30T00:05:25.543Z,35.90
2022-07-30T00:07:54.021Z,36.50
2022-07-30T00:10:23.136Z,37.10
2022-07-30T00:12:51.423Z,37.30
2022-07-30T00:15:20.959Z,37.60
2022-07-30T00:17:49.491Z,37.40
2022-07-30T00:20:18.415Z,37.40
2022-07-30T00:22:47.170Z,37.40
2022-07-30T00:25:16.100Z,37.90
2022-07-30T00:27:45.439Z,37.90
2022-07-30T00:30:14.267Z,38.00
2022-07-30T00:32:46.027Z,38.00
2022-07-30T00:35:14.945Z,38.20
2022-07-30T00:37:43.163Z,38.30
2022-07-30T00:40:11.957Z,38.50
2022-07-30T00:42:41.494Z,38.50
2022-07-30T00:45:11.406Z,38.70
2022-07-30T00:47:40.251Z,39.10
2022-07-30T00:50:12.308Z,39.40
2022-07-30T00:52:41.215Z,39.50
2022-07-30T00:55:11.773Z,40.00
2022-07-30T00:57:40.304Z,40.40
2022-07-30T01:00:11.620Z,40.70
2022-07-30T01:02:39.989Z,41.20
2022-07-30T01:05:11.421Z,41.50
2022-07-30T01:07:40.129Z,41.70
2022-07-30T01:10:10.304Z,42.00
2022-07-30T01:12:39.025Z,42.30
2022-07-30T01:15:09.743Z,42.40
2022-07-30T01:17:38.718Z,43.00
2022-07-30T01:20:12.477Z,43.10
2022-07-30T01:22:56.718Z,43.00
2022-07-30T01:25:42.745Z,43.00
2022-07-30T01:28:18.497Z,43.20
2022-07-30T01:30:47.509Z,43.50
2022-07-30T01:33:20.008Z,43.70
2022-07-30T01:35:49.389Z,43.80
2022-07-30T01:38:21.814Z,43.80
2022-07-30T01:40:53.322Z,44.10
2022-07-30T01:43:23.871Z,44.20
2022-07-30T01:45:54.443Z,44.70
2022-07-30T01:48:26.391Z,45.30
2022-07-30T01:50:58.373Z,45.60
2022-07-30T01:53:30.795Z,45.50
2022-07-30T01:56:03.136Z,45.60
2022-07-30T01:58:35.211Z,45.50
2022-07-30T02:01:16.818Z,45.60
2022-07-30T02:03:45.392Z,45.40
2022-07-30T02:06:20.706Z,45.10
2022-07-30T02:08:55.372Z,45.40
2022-07-30T02:11:44.592Z,45.30
2022-07-30T02:14:22.932Z,45.40
2022-07-30T02:16:56.250Z,45.80
2022-07-30T02:19:32.895Z,46.10
2022-07-30T02:22:06.771Z,45.80
2022-07-30T02:24:38.923Z,45.90
2022-07-30T02:27:15.180Z,46.10
2022-07-30T02:29:45.598Z,46.20
2022-07-30T02:32:18.816Z,46.20
2022-07-30T02:34:50.961Z,46.30
2022-07-30T02:37:43.944Z,46.40
2022-07-30T02:40:16.669Z,46.60
2022-07-30T02:42:49.213Z,46.70
2022-07-30T02:45:22.523Z,46.90
2022-07-30T02:47:54.663Z,47.10
2022-07-30T02:50:24.942Z,47.00
2022-07-30T02:52:54.566Z,47.10
2022-07-30T02:55:24.024Z,47.20
2022-07-30T02:57:54.807Z,47.10
2022-07-30T03:00:24.807Z,47.30
2022-07-30T03:02:56.682Z,47.00
2022-07-30T03:05:26.957Z,47.00
2022-07-30T03:07:57.654Z,47.30
2022-07-30T03:10:27.203Z,47.20
2022-07-30T03:12:59.241Z,47.40
2022-07-30T03:15:30.482Z,47.30
2022-07-30T03:18:01.079Z,47.50
2022-07-30T03:20:34.847Z,47.50
2022-07-30T03:23:04.116Z,47.60
2022-07-30T03:25:33.823Z,47.60
2022-07-30T03:28:05.885Z,48.10
2022-07-30T03:30:35.559Z,48.40
2022-07-30T03:33:04.469Z,48.20
2022-07-30T03:35:33.683Z,48.20
2022-07-30T03:38:03.384Z,48.60
2022-07-30T03:40:33.398Z,48.70
2022-07-30T03:43:03.603Z,48.90
2022-07-30T03:45:33.985Z,49.00
2022-07-30T03:48:09.954Z,49.40
2022-07-30T03:50:43.915Z,49.30
2022-07-30T03:53:12.546Z,49.50
2022-07-30T03:56:04.072Z,49.90
2022-07-30T03:58:58.633Z,49.70
2022-07-30T04:01:27.410Z,49.90
2022-07-30T04:04:06.692Z,49.80
2022-07-30T04:06:39.633Z,50.00
2022-07-30T04:09:09.236Z,49.80
2022-07-30T04:11:40.880Z,49.80
2022-07-30T04:14:13.817Z,50.00
2022-07-30T04:16:50.797Z,49.70
2022-07-30T04:19:26.701Z,50.20
2022-07-30T04:21:56.685Z,50.30
2022-07-30T04:24:26.980Z,50.50
2022-07-30T04:26:56.168Z,50.70
2022-07-30T04:29:25.819Z,50.50
2022-07-30T04:31:56.556Z,50.60
2022-07-30T04:35:04.176Z,51.10
2022-07-30T04:37:51.072Z,51.30
2022-07-30T04:40:19.843Z,51.20
2022-07-30T04:42:48.620Z,50.60
2022-07-30T04:45:20.195Z,51.10
2022-07-30T04:47:54.291Z,51.20
2022-07-30T04:50:44.405Z,51.00
2022-07-30T04:53:15.140Z,51.70
2022-07-30T04:55:50.693Z,51.80
2022-07-30T04:58:21.908Z,51.90
2022-07-30T05:00:54.088Z,52.30
2022-07-30T05:03:28.570Z,52.10
2022-07-30T05:05:58.021Z,52.60
2022-07-30T05:08:31.331Z,52.80
2022-07-30T05:11:01.841Z,53.10
2022-07-30T05:13:34.408Z,52.90
2022-07-30T05:16:06.962Z,53.40
2022-07-30T05:18:36.251Z,52.40
2022-07-30T05:21:04.984Z,52.70
2022-07-30T05:23:38.484Z,52.80
2022-07-30T05:26:21.560Z,53.10
2022-07-30T05:28:55.179Z,53.50
2022-07-30T05:31:32.908Z,53.30
2022-07-30T05:34:04.136Z,53.50
2022-07-30T05:36:43.001Z,53.00
2022-07-30T05:39:13.351Z,52.80
2022-07-30T05:41:53.712Z,52.10
2022-07-30T05:44:27.047Z,52.30
2022-07-30T05:46:58.241Z,51.90
2022-07-30T05:49:26.719Z,52.00
2022-07-30T05:52:01.678Z,51.60
2022-07-30T05:54:30.423Z,51.80
2022-07-30T05:57:21.989Z,51.80
2022-07-30T05:59:50.470Z,51.20
2022-07-30T06:02:27.763Z,51.70
2022-07-30T06:05:14.567Z,52.10
2022-07-30T06:07:44.716Z,56.40
2022-07-30T06:10:12.994Z,54.10
2022-07-30T06:12:42.399Z,53.40
2022-07-30T06:15:11.901Z,53.70
2022-07-30T06:17:59.531Z,52.80
2022-07-30T06:20:51.845Z,52.50
2022-07-30T06:23:43.102Z,52.40
2022-07-30T06:26:28.948Z,52.30
2022-07-30T06:28:57.322Z,54.40
2022-07-30T06:31:30.772Z,54.10
2022-07-30T06:34:00.559Z,53.40
2022-07-30T06:36:34.079Z,52.30
2022-07-30T06:39:06.260Z,51.90
2022-07-30T06:42:00.243Z,50.40
2022-07-30T06:44:33.700Z,49.90
2022-07-30T06:47:26.078Z,49.00
2022-07-30T06:49:56.330Z,49.40
2022-07-30T06:52:26.222Z,50.00
2022-07-30T06:54:55.966Z,49.80
2022-07-30T06:57:42.562Z,49.70
2022-07-30T07:00:29.812Z,48.10
2022-07-30T07:03:02.694Z,48.30
2022-07-30T07:05:39.778Z,46.80
2022-07-30T07:08:08.405Z,44.80
2022-07-30T07:10:46.712Z,45.40
2022-07-30T07:13:22.278Z,45.40
2022-07-30T07:15:51.164Z,45.40
2022-07-30T07:18:22.605Z,45.20
2022-07-30T07:25:45.286Z,44.90
2022-07-30T07:28:13.940Z,45.00
2022-07-30T07:30:45.734Z,45.80
2022-07-30T07:33:16.530Z,44.30
2022-07-30T07:35:49.819Z,43.40
2022-07-30T07:38:25.951Z,43.80
2022-07-30T07:40:57.330Z,43.30
2022-07-30T07:43:26.251Z,43.00
2022-07-30T07:45:57.673Z,43.00
2022-07-30T07:48:28.815Z,42.20
2022-07-30T07:51:05.096Z,41.90
2022-07-30T07:53:38.173Z,42.30
2022-07-30T07:56:09.266Z,43.30
2022-07-30T07:58:38.268Z,42.30
2022-07-30T08:01:11.049Z,40.20
2022-07-30T08:03:59.757Z,42.00
2022-07-30T08:06:56.766Z,40.70
2022-07-30T08:09:44.665Z,40.80
2022-07-30T08:12:50.167Z,42.30
2022-07-30T08:15:21.899Z,39.80
2022-07-30T08:18:16.485Z,39.20
2022-07-30T08:21:10.903Z,39.60
2022-07-30T08:23:42.473Z,39.80
2022-07-30T08:26:11.124Z,39.00
2022-07-30T08:28:43.115Z,39.80
2022-07-30T08:31:11.958Z,39.10
2022-07-30T08:33:40.189Z,39.10
2022-07-30T08:36:10.246Z,38.00
2022-07-30T08:38:40.269Z,38.30
2022-07-30T08:41:09.760Z,38.00
2022-07-30T08:43:38.496Z,37.70
2022-07-30T08:46:13.709Z,36.80
2022-07-30T08:51:18.707Z,36.20
2022-07-30T08:54:02.539Z,35.10
2022-07-30T08:56:33.364Z,36.80
2022-07-30T08:59:02.151Z,34.90
2022-07-30T09:01:31.956Z,33.40
2022-07-30T09:04:00.509Z,33.10
2022-07-30T09:06:29.688Z,30.50
2022-07-30T09:08:57.907Z,30.50
2022-07-30T09:11:26.812Z,31.70
2022-07-30T09:13:55.535Z,32.30
2022-07-30T09:16:25.615Z,31.40
2022-07-30T09:18:58.200Z,28.20
2022-07-30T09:21:28.413Z,29.80
2022-07-30T09:24:16.915Z,27.60
2022-07-30T09:26:56.722Z,28.50
2022-07-30T09:29:43.471Z,28.50
2022-07-30T09:32:49.099Z,28.40
2022-07-30T09:35:31.460Z,27.20
2022-07-30T09:38:20.055Z,27.10
2022-07-30T09:40:57.187Z,25.80
2022-07-30T09:43:44.089Z,27.00
2022-07-30T09:46:21.103Z,28.50
2022-07-30T09:48:49.982Z,26.80
2022-07-30T09:51:23.998Z,26.70
2022-07-30T09:54:07.941Z,27.10
2022-07-30T09:56:37.918Z,24.80
2022-07-30T09:59:07.107Z,25.40
2022-07-30T10:01:56.271Z,25.90
2022-07-30T10:04:47.976Z,25.10
2022-07-30T10:07:25.720Z,27.10
2022-07-30T10:09:55.620Z,25.10
2022-07-30T10:12:26.629Z,25.30
2022-07-30T10:14:56.204Z,23.00
2022-07-30T10:17:25.210Z,23.40
2022-07-30T10:20:16.064Z,23.00
2022-07-30T10:23:09.076Z,23.20
2022-07-30T10:25:50.031Z,24.00
2022-07-30T10:28:43.614Z,22.90
2022-07-30T10:31:49.363Z,22.10
2022-07-30T10:34:01.390Z,22.30
2022-07-30T10:36:30.813Z,21.70
2022-07-30T10:39:03.262Z,22.00
2022-07-30T10:41:48.365Z,23.00
2022-07-30T10:45:00.032Z,22.80
2022-07-30T10:47:33.571Z,23.50
2022-07-30T10:50:11.652Z,23.80
2022-07-30T10:52:52.021Z,24.40
2022-07-30T10:55:37.024Z,22.70
2022-07-30T10:58:09.789Z,21.90
2022-07-30T11:01:01.589Z,22.70
2022-07-30T11:03:41.070Z,22.60
2022-07-30T11:06:29.691Z,24.10
2022-07-30T11:08:58.327Z,23.10
2022-07-30T11:12:05.764Z,23.60
2022-07-30T11:14:58.375Z,24.20
2022-07-30T11:18:00.028Z,23.00
2022-07-30T11:20:28.968Z,23.40
2022-07-30T11:23:10.567Z,23.10
2022-07-30T11:25:51.644Z,23.20
2022-07-30T11:28:41.925Z,23.00
2022-07-30T11:31:57.047Z,22.40
2022-07-30T11:34:27.965Z,22.30
2022-07-30T11:37:18.056Z,22.60
2022-07-30T11:40:13.694Z,22.40
2022-07-30T11:42:45.164Z,23.60
2022-07-30T11:45:33.544Z,24.30
2022-07-30T11:48:02.219Z,23.00
2022-07-30T11:50:33.595Z,22.20
2022-07-30T11:53:03.339Z,23.00
2022-07-30T11:55:33.757Z,22.80
2022-07-30T11:58:04.192Z,20.90
2022-07-30T12:00:39.039Z,21.50
2022-07-30T12:03:12.256Z,23.40
2022-07-30T12:05:41.016Z,21.30
2022-07-30T12:08:31.503Z,21.90
2022-07-30T12:11:00.439Z,21.20
2022-07-30T12:13:45.008Z,20.60
2022-07-30T12:16:18.289Z,20.40
2022-07-30T12:18:47.645Z,20.80
2022-07-30T12:21:16.961Z,21.20
2022-07-30T12:23:54.900Z,20.90
2022-07-30T12:26:24.691Z,22.00
2022-07-30T12:28:56.429Z,21.00
2022-07-30T12:31:26.679Z,21.30
2022-07-30T12:33:58.913Z,20.80
2022-07-30T12:36:32.833Z,20.80
2022-07-30T12:39:02.248Z,21.30
2022-07-30T12:41:43.783Z,21.00
2022-07-30T12:44:12.931Z,20.60
2022-07-30T12:46:43.303Z,20.60
2022-07-30T12:49:22.520Z,20.60
2022-07-30T12:51:59.843Z,20.00
2022-07-30T12:54:28.997Z,21.20
2022-07-30T12:57:00.665Z,19.30
2022-07-30T12:59:30.541Z,20.00
2022-07-30T13:02:01.238Z,18.30
2022-07-30T13:04:31.636Z,20.50
2022-07-30T13:07:08.444Z,19.80
2022-07-30T13:09:36.847Z,19.10
2022-07-30T13:12:05.857Z,18.50
2022-07-30T13:14:34.620Z,19.00
2022-07-30T13:17:04.958Z,17.80
2022-07-30T13:19:33.684Z,18.20
2022-07-30T13:22:01.905Z,18.50
2022-07-30T13:24:30.091Z,17.60
2022-07-30T13:26:58.280Z,17.90
2022-07-30T13:29:26.653Z,17.50
2022-07-30T13:31:54.787Z,17.50
2022-07-30T13:34:24.544Z,18.40
2022-07-30T13:36:52.704Z,17.60
2022-07-30T13:39:20.925Z,17.80
2022-07-30T13:41:49.136Z,19.10
2022-07-30T13:44:17.545Z,18.50
2022-07-30T13:46:45.716Z,17.60
2022-07-30T13:49:13.964Z,18.90
2022-07-30T13:51:43.675Z,17.10
2022-07-30T13:54:13.947Z,18.30
2022-07-30T13:56:42.257Z,19.60
2022-07-30T13:59:12.755Z,17.90
2022-07-30T14:01:41.281Z,19.10
2022-07-30T14:04:09.722Z,18.90
2022-07-30T14:06:38.149Z,19.10
2022-07-30T14:09:07.712Z,18.30
2022-07-30T14:11:35.995Z,17.40
2022-07-30T14:14:04.278Z,18.20
2022-07-30T14:16:47.834Z,18.00
2022-07-30T14:19:23.543Z,17.50
2022-07-30T14:21:53.758Z,17.30
2022-07-30T14:24:24.376Z,18.80
2022-07-30T14:26:57.677Z,18.10
2022-07-30T14:29:26.729Z,16.70
2022-07-30T14:31:55.274Z,16.80
2022-07-30T14:34:23.804Z,16.90
2022-07-30T14:36:52.305Z,16.90
2022-07-30T14:39:21.035Z,16.70
2022-07-30T14:41:54.079Z,17.40
2022-07-30T14:44:24.557Z,17.30
2022-07-30T14:46:53.193Z,17.10
2022-07-30T14:49:22.715Z,16.90
2022-07-30T14:51:52.368Z,16.30
2022-07-30T14:54:20.673Z,16.80
2022-07-30T14:56:54.823Z,16.90
2022-07-30T14:59:24.889Z,17.40
2022-07-30T15:01:53.401Z,17.00
2022-07-30T15:04:22.040Z,17.20
2022-07-30T15:06:50.418Z,16.70
2022-07-30T15:09:20.903Z,16.40
2022-07-30T15:12:23.734Z,16.10
2022-07-30T15:14:40.025Z,17.00
2022-07-30T15:17:08.514Z,16.60
2022-07-30T15:19:37.063Z,16.80
2022-07-30T15:22:14.847Z,17.70
2022-07-30T15:24:43.223Z,17.80
2022-07-30T15:27:12.954Z,17.60
2022-07-30T15:29:41.363Z,17.60
2022-07-30T15:32:09.633Z,17.60
2022-07-30T15:34:37.968Z,17.70
2022-07-30T15:37:06.333Z,17.90
2022-07-30T15:39:35.915Z,18.20
2022-07-30T15:42:06.380Z,17.10
2022-07-30T15:44:39.818Z,17.10
2022-07-30T15:47:13.778Z,17.60
2022-07-30T15:49:42.269Z,17.50
2022-07-30T15:52:10.937Z,17.80
2022-07-30T15:54:39.140Z,17.50
2022-07-30T15:57:07.631Z,17.60
2022-07-30T15:59:37.239Z,17.40
2022-07-30T16:02:05.991Z,17.20
2022-07-30T16:04:34.883Z,17.70
2022-07-30T16:07:04.470Z,17.40
2022-07-30T16:09:33.466Z,17.20
2022-07-30T16:12:02.220Z,17.10
2022-07-30T16:14:30.679Z,17.00
2022-07-30T16:17:00.307Z,17.20
2022-07-30T16:19:28.807Z,16.10
2022-07-30T16:21:57.206Z,16.30
2022-07-30T16:24:25.678Z,16.20
2022-07-30T16:26:53.846Z,16.70
2022-07-30T16:29:22.203Z,15.70
2022-07-30T16:31:51.436Z,16.00
2022-07-30T16:34:26.356Z,17.10
2022-07-30T16:36:55.303Z,15.80
2022-07-30T16:39:23.695Z,16.10
2022-07-30T16:41:52.037Z,16.40
2022-07-30T16:44:20.265Z,16.50
2022-07-30T16:46:48.944Z,17.20
2022-07-30T16:49:17.373Z,16.80
2022-07-30T16:51:47.202Z,16.30
2022-07-30T16:54:15.659Z,16.50
2022-07-30T16:56:43.828Z,16.30
2022-07-30T16:59:13.965Z,16.30
2022-07-30T17:01:42.316Z,16.80
2022-07-30T17:04:10.541Z,16.70
2022-07-30T17:06:40.045Z,17.00
2022-07-30T17:09:10.420Z,16.60
2022-07-30T17:11:47.237Z,16.80
2022-07-30T17:14:22.173Z,16.10
2022-07-30T17:16:50.581Z,16.60
2022-07-30T17:19:18.929Z,16.50
2022-07-30T17:21:47.595Z,17.10
2022-07-30T17:24:17.740Z,16.50
2022-07-30T17:26:46.803Z,16.60
2022-07-30T17:29:16.992Z,16.70
2022-07-30T17:31:46.831Z,16.70
2022-07-30T17:34:20.169Z,16.60
2022-07-30T17:36:52.388Z,17.30
2022-07-30T17:40:27.478Z,17.00
2022-07-30T17:42:12.955Z,17.00
2022-07-30T17:44:42.828Z,16.70
2022-07-30T17:47:15.215Z,16.70
2022-07-30T17:49:45.229Z,16.90
2022-07-30T17:52:13.509Z,16.80
2022-07-30T17:54:43.401Z,17.00
2022-07-30T17:57:12.671Z,16.90
2022-07-30T17:59:40.893Z,17.00
2022-07-30T18:02:09.683Z,16.90
2022-07-30T18:04:38.304Z,17.10
2022-07-30T18:07:06.991Z,17.40
2022-07-30T18:09:39.250Z,17.40
2022-07-30T18:12:10.729Z,17.60
2022-07-30T18:14:39.227Z,17.90
2022-07-30T18:17:11.256Z,17.70
2022-07-30T18:19:42.577Z,17.60
2022-07-30T18:22:10.779Z,17.70
2022-07-30T18:24:43.643Z,18.00
2022-07-30T18:27:14.274Z,18.00
2022-07-30T18:29:42.809Z,18.00
2022-07-30T18:32:11.081Z,18.50
2022-07-30T18:34:39.416Z,18.80
2022-07-30T18:37:07.781Z,21.10
2022-07-30T18:39:36.008Z,20.10
2022-07-30T18:42:04.888Z,20.40
2022-07-30T18:44:34.711Z,19.50
2022-07-30T18:47:03.115Z,18.60
2022-07-30T18:49:36.956Z,20.80
2022-07-30T18:52:07.788Z,22.40
2022-07-30T18:54:37.010Z,22.50
2022-07-30T18:57:05.705Z,21.50
2022-07-30T18:59:35.400Z,23.60
2022-07-30T19:02:04.875Z,22.00
2022-07-30T19:04:33.713Z,22.10
2022-07-30T19:07:01.949Z,22.20
2022-07-30T19:09:30.220Z,22.60
2022-07-30T19:11:58.381Z,23.10
2022-07-30T19:14:26.835Z,23.60
2022-07-30T19:16:59.385Z,23.50
2022-07-30T19:19:28.361Z,23.80
2022-07-30T19:21:56.964Z,24.10
2022-07-30T19:24:27.079Z,23.90
2022-07-30T19:26:56.304Z,24.30
2022-07-30T19:29:24.653Z,24.30
2022-07-30T19:31:52.873Z,24.50
2022-07-30T19:34:22.516Z,24.40
2022-07-30T19:36:50.719Z,24.40
2022-07-30T19:39:21.384Z,25.20
2022-07-30T19:42:01.996Z,25.40
2022-07-30T19:44:30.748Z,24.50
2022-07-30T19:46:59.941Z,25.10
2022-07-30T19:49:29.899Z,25.30
2022-07-30T19:52:10.022Z,24.80
2022-07-30T19:54:46.512Z,24.40
2022-07-30T19:57:15.307Z,24.60
2022-07-30T20:00:00.148Z,24.90
2022-07-30T20:02:40.380Z,25.00
2022-07-30T20:05:12.005Z,25.10
2022-07-30T20:07:43.052Z,25.60
2022-07-30T20:10:13.107Z,25.50
2022-07-30T20:12:49.005Z,25.40
2022-07-30T20:15:17.932Z,25.80
2022-07-30T20:17:46.701Z,25.60
2022-07-30T20:20:16.526Z,25.60
2022-07-30T20:22:44.806Z,26.30
2022-07-30T20:25:13.736Z,26.20
2022-07-30T20:27:42.824Z,26.70
2022-07-30T20:30:12.680Z,26.90
2022-07-30T20:32:46.410Z,26.80
2022-07-30T20:35:19.908Z,27.70
2022-07-30T20:37:54.787Z,26.70
2022-07-30T20:40:26.598Z,26.50
2022-07-30T20:42:55.730Z,26.80
2022-07-30T20:45:25.274Z,26.80
2022-07-30T20:47:56.546Z,27.10
2022-07-30T20:50:30.506Z,27.10
2022-07-30T20:52:59.815Z,27.30
2022-07-30T20:55:28.477Z,27.20
2022-07-30T20:58:06.974Z,27.70
2022-07-30T21:00:49.992Z,27.50
2022-07-30T21:03:21.220Z,28.00
2022-07-30T21:05:52.628Z,28.10
2022-07-30T21:08:25.259Z,28.40
2022-07-30T21:10:55.464Z,28.60
2022-07-30T21:13:24.960Z,28.40
2022-07-30T21:16:02.811Z,28.40
2022-07-30T21:18:32.612Z,28.60
2022-07-30T21:21:05.017Z,28.80
2022-07-30T21:23:34.227Z,29.40
2022-07-30T21:26:06.956Z,29.90
2022-07-30T21:28:39.056Z,29.60
2022-07-30T21:31:08.759Z,29.30
2022-07-30T21:33:37.452Z,29.20
2022-07-30T21:36:10.851Z,29.80
2022-07-30T21:38:41.947Z,30.10
2022-07-30T21:41:14.366Z,30.20
2022-07-30T21:43:44.189Z,29.80
2022-07-30T21:46:13.374Z,30.30
2022-07-30T21:48:43.307Z,30.00
2022-07-30T21:51:13.867Z,30.90
2022-07-30T21:53:44.774Z,29.60
2022-07-30T21:56:14.733Z,29.70
2022-07-30T21:58:44.648Z,30.80
2022-07-30T22:01:17.869Z,30.40
2022-07-30T22:04:04.842Z,31.00
2022-07-30T22:06:39.176Z,30.40
2022-07-30T22:09:24.338Z,30.40
2022-07-30T22:11:57.314Z,30.90
2022-07-30T22:14:30.104Z,31.20
2022-07-30T22:17:00.509Z,30.90
2022-07-30T22:19:32.300Z,30.30
2022-07-30T22:22:05.128Z,30.50
2022-07-30T22:24:50.212Z,31.20
2022-07-30T22:27:18.647Z,31.60
2022-07-30T22:29:50.180Z,32.90
2022-07-30T22:32:23.615Z,33.30
2022-07-30T22:34:52.170Z,33.10
2022-07-30T22:37:22.724Z,32.90
2022-07-30T22:39:54.188Z,32.10
2022-07-30T22:42:23.907Z,32.20
2022-07-30T22:44:54.902Z,32.60
2022-07-30T22:47:50.403Z,32.60
2022-07-30T22:50:12.902Z,33.00
2022-07-30T22:52:56.158Z,36.60
2022-07-30T22:55:27.772Z,36.40
2022-07-30T22:57:58.173Z,35.10
2022-07-30T23:00:28.604Z,34.90
2022-07-30T23:02:57.736Z,35.30
2022-07-30T23:05:26.453Z,34.50
2022-07-30T23:07:56.480Z,33.50
2022-07-30T23:10:27.616Z,33.50
2022-07-30T23:12:56.471Z,33.10
2022-07-30T23:15:24.971Z,32.80
2022-07-30T23:17:53.270Z,32.20
2022-07-30T23:20:22.516Z,32.60
2022-07-30T23:22:51.591Z,32.70
2022-07-30T23:25:23.038Z,33.10
2022-07-30T23:27:52.076Z,33.60
2022-07-30T23:30:20.251Z,33.80
2022-07-30T23:32:48.432Z,33.60
2022-07-30T23:35:16.729Z,33.80
2022-07-30T23:37:49.103Z,33.80
2022-07-30T23:40:19.070Z,34.10
2022-07-30T23:42:50.898Z,34.60
2022-07-30T23:45:19.456Z,34.50
2022-07-30T23:48:02.160Z,34.50
2022-07-30T23:50:32.182Z,35.00
2022-07-30T23:53:00.512Z,35.50
2022-07-30T23:55:28.936Z,35.30
2022-07-30T23:57:59.004Z,35.30
